createdAt,value
2023-04-02T00:01:39.160Z,100.00
2023-04-02T00:04:25.756Z,100.00
2023-04-02T00:07:33.118Z,100.00
2023-04-02T00:10:28.552Z,100.00
2023-04-02T00:13:13.443Z,100.00
2023-04-02T00:16:00.138Z,100.00
2023-04-02T00:18:49.608Z,100.00
2023-04-02T00:21:38.798Z,100.00
2023-04-02T00:24:24.735Z,100.00
2023-04-02T00:27:14.116Z,100.00
2023-04-02T00:29:59.302Z,100.00
2023-04-02T00:32:45.083Z,100.00
2023-04-02T00:35:30.533Z,100.00
2023-04-02T00:38:27.669Z,100.00
2023-04-02T00:41:19.006Z,100.00
2023-04-02T00:44:05.419Z,100.00
2023-04-02T00:46:51.021Z,100.00
2023-04-02T00:49:37.899Z,100.00
2023-04-02T00:52:27.282Z,100.00
2023-04-02T00:55:20.855Z,100.00
2023-04-02T00:58:31.904Z,100.00
2023-04-02T01:01:19.340Z,100.00
2023-04-02T01:04:05.578Z,100.00
2023-04-02T01:06:52.861Z,100.00
2023-04-02T01:09:54.712Z,100.00
2023-04-02T01:12:53.935Z,100.00
2023-04-02T01:16:06.287Z,100.00
2023-04-02T01:19:09.827Z,100.00
2023-04-02T01:22:17.870Z,100.00
2023-04-02T01:25:05.870Z,100.00
2023-04-02T01:27:57.975Z,100.00
2023-04-02T01:30:45.242Z,100.00
2023-04-02T01:33:33.601Z,100.00
2023-04-02T01:36:44.193Z,100.00
2023-04-02T01:39:54.033Z,100.00
2023-04-02T01:43:01.470Z,100.00
2023-04-02T01:45:46.808Z,100.00
2023-04-02T01:48:31.565Z,100.00
2023-04-02T01:51:28.156Z,100.00
2023-04-02T01:54:16.047Z,100.00
2023-04-02T01:57:01.119Z,100.00
2023-04-02T01:59:46.130Z,100.00
2023-04-02T02:02:31.251Z,100.00
2023-04-02T02:05:19.455Z,100.00
2023-04-02T02:08:18.922Z,100.00
2023-04-02T02:11:05.173Z,100.00
2023-04-02T02:13:54.960Z,100.00
2023-04-02T02:16:42.993Z,100.00
2023-04-02T02:19:48.482Z,100.00
2023-04-02T02:22:37.001Z,100.00
2023-04-02T02:25:30.421Z,100.00
2023-04-02T02:28:22.823Z,100.00
2023-04-02T02:31:17.951Z,100.00
2023-04-02T02:34:16.212Z,100.00
2023-04-02T02:37:12.818Z,100.00
2023-04-02T02:40:00.796Z,100.00
2023-04-02T02:42:56.442Z,100.00
2023-04-02T02:45:43.682Z,100.00
2023-04-02T02:48:37.136Z,100.00
2023-04-02T02:51:40.116Z,100.00
2023-04-02T02:54:29.651Z,100.00
2023-04-02T02:57:22.649Z,100.00
2023-04-02T03:00:15.277Z,100.00
2023-04-02T03:03:07.160Z,100.00
2023-04-02T03:06:02.228Z,100.00
2023-04-02T03:09:06.265Z,100.00
2023-04-02T03:12:16.302Z,100.00
2023-04-02T03:15:42.162Z,100.00
2023-04-02T03:19:05.438Z,100.00
2023-04-02T03:22:02.533Z,100.00
2023-04-02T03:25:01.507Z,100.00
2023-04-02T03:27:51.285Z,100.00
2023-04-02T03:31:06.513Z,100.00
2023-04-02T03:34:00.840Z,100.00
2023-04-02T03:36:56.129Z,100.00
2023-04-02T03:39:46.063Z,100.00
2023-04-02T03:42:44.914Z,100.00
2023-04-02T03:45:40.567Z,100.00
2023-04-02T03:48:28.259Z,100.00
2023-04-02T03:51:26.236Z,100.00
2023-04-02T03:54:15.458Z,100.00
2023-04-02T03:57:01.154Z,100.00
2023-04-02T03:59:56.844Z,100.00
2023-04-02T04:02:51.858Z,100.00
2023-04-02T04:05:47.864Z,100.00
2023-04-02T04:08:41.971Z,100.00
2023-04-02T04:11:33.326Z,100.00
2023-04-02T04:14:27.522Z,100.00
2023-04-02T04:17:23.390Z,100.00
2023-04-02T04:20:16.983Z,100.00
2023-04-02T04:23:14.439Z,100.00
2023-04-02T04:26:19.095Z,100.00
2023-04-02T04:29:29.044Z,100.00
2023-04-02T04:32:33.421Z,100.00
2023-04-02T04:35:30.611Z,100.00
2023-04-02T04:38:27.075Z,100.00
2023-04-02T04:41:21.974Z,100.00
2023-04-02T04:44:39.329Z,100.00
2023-04-02T04:47:39.745Z,100.00
2023-04-02T04:50:37.011Z,100.00
2023-04-02T04:53:24.963Z,100.00
2023-04-02T04:56:19.342Z,100.00
2023-04-02T04:59:23.001Z,100.00
2023-04-02T05:02:15.860Z,100.00
2023-04-02T05:05:03.051Z,100.00
2023-04-02T05:07:52.423Z,100.00
2023-04-02T05:10:50.396Z,100.00
2023-04-02T05:14:12.735Z,100.00
2023-04-02T05:17:08.607Z,100.00
2023-04-02T05:20:21.053Z,100.00
2023-04-02T05:23:19.287Z,100.00
2023-04-02T05:26:36.117Z,100.00
2023-04-02T05:29:42.595Z,100.00
2023-04-02T05:32:34.265Z,100.00
2023-04-02T05:35:24.970Z,100.00
2023-04-02T05:38:23.335Z,100.00
2023-04-02T05:41:36.008Z,100.00
2023-04-02T05:44:22.408Z,100.00
2023-04-02T05:47:18.883Z,100.00
2023-04-02T05:50:08.007Z,100.00
2023-04-02T05:53:09.086Z,100.00
2023-04-02T05:56:13.391Z,100.00
2023-04-02T05:59:15.663Z,100.00
2023-04-02T06:02:10.865Z,100.00
2023-04-02T06:05:06.321Z,100.00
2023-04-02T06:08:07.105Z,100.00
2023-04-02T06:11:00.902Z,100.00
2023-04-02T06:13:45.939Z,100.00
2023-04-02T06:16:33.804Z,100.00
2023-04-02T06:19:24.602Z,100.00
2023-04-02T06:22:39.276Z,100.00
2023-04-02T06:25:30.657Z,100.00
2023-04-02T06:28:53.227Z,100.00
2023-04-02T06:31:53.573Z,100.00
2023-04-02T06:34:41.799Z,100.00
2023-04-02T06:37:37.009Z,100.00
2023-04-02T06:40:33.016Z,100.00
2023-04-02T06:43:40.474Z,100.00
2023-04-02T06:46:53.367Z,100.00
2023-04-02T06:50:11.461Z,100.00
2023-04-02T06:53:00.671Z,100.00
2023-04-02T06:56:00.735Z,100.00
2023-04-02T06:58:48.268Z,100.00
2023-04-02T07:01:39.770Z,100.00
2023-04-02T07:04:25.404Z,100.00
2023-04-02T07:07:11.470Z,100.00
2023-04-02T07:10:00.242Z,100.00
2023-04-02T07:12:45.278Z,100.00
2023-04-02T07:15:30.266Z,100.00
2023-04-02T07:18:31.840Z,100.00
2023-04-02T07:21:19.316Z,100.00
2023-04-02T07:24:04.784Z,100.00
2023-04-02T07:26:50.012Z,100.00
2023-04-02T07:29:34.768Z,100.00
2023-04-02T07:32:20.177Z,100.00
2023-04-02T07:35:05.630Z,100.00
2023-04-02T07:37:52.201Z,100.00
2023-04-02T07:40:38.078Z,100.00
2023-04-02T07:43:23.024Z,100.00
2023-04-02T07:46:08.328Z,100.00
2023-04-02T07:48:52.826Z,100.00
2023-04-02T07:51:37.660Z,100.00
2023-04-02T07:54:22.588Z,100.00
2023-04-02T07:57:07.488Z,100.00
2023-04-02T07:59:55.812Z,100.00
2023-04-02T08:02:41.191Z,100.00
2023-04-02T08:05:27.135Z,100.00
2023-04-02T08:08:11.944Z,100.00
2023-04-02T08:10:57.104Z,100.00
2023-04-02T08:13:42.654Z,100.00
2023-04-02T08:16:27.473Z,100.00
2023-04-02T08:19:12.412Z,100.00
2023-04-02T08:21:57.139Z,100.00
2023-04-02T08:24:41.741Z,100.00
2023-04-02T08:27:26.000Z,100.00
2023-04-02T08:30:12.494Z,100.00
2023-04-02T08:32:57.233Z,100.00
2023-04-02T08:35:42.125Z,100.00
2023-04-02T08:38:26.617Z,100.00
2023-04-02T08:41:22.525Z,100.00
2023-04-02T08:44:28.939Z,100.00
2023-04-02T08:47:14.837Z,100.00
2023-04-02T08:50:03.782Z,100.00
2023-04-02T08:52:48.713Z,100.00
2023-04-02T08:55:47.144Z,100.00
2023-04-02T08:58:42.342Z,100.00
2023-04-02T09:01:38.787Z,100.00
2023-04-02T09:04:25.469Z,100.00
2023-04-02T09:07:16.372Z,100.00
2023-04-02T09:10:01.174Z,100.00
2023-04-02T09:12:51.418Z,100.00
2023-04-02T09:15:36.119Z,100.00
2023-04-02T09:18:21.136Z,100.00
2023-04-02T09:21:27.669Z,100.00
2023-04-02T09:24:15.358Z,100.00
2023-04-02T09:27:00.537Z,100.00
2023-04-02T09:29:48.948Z,100.00
2023-04-02T09:32:45.991Z,100.00
2023-04-02T09:35:33.428Z,100.00
2023-04-02T09:38:22.441Z,100.00
2023-04-02T09:41:19.364Z,100.00
2023-04-02T09:44:13.399Z,100.00
2023-04-02T09:47:02.865Z,100.00
2023-04-02T09:49:47.645Z,100.00
2023-04-02T09:52:32.661Z,100.00
2023-04-02T09:55:30.428Z,100.00
2023-04-02T09:58:16.851Z,100.00
2023-04-02T10:01:01.614Z,100.00
2023-04-02T10:03:47.055Z,100.00
2023-04-02T10:06:33.822Z,100.00
2023-04-02T10:09:28.326Z,100.00
2023-04-02T10:12:14.880Z,100.00
2023-04-02T10:15:02.596Z,100.00
2023-04-02T10:18:02.015Z,100.00
2023-04-02T10:20:51.501Z,100.00
2023-04-02T10:23:36.719Z,100.00
2023-04-02T10:26:47.802Z,100.00
2023-04-02T10:30:02.046Z,100.00
2023-04-02T10:33:01.177Z,100.00
2023-04-02T10:36:04.273Z,100.00
2023-04-02T10:39:05.521Z,98.21
2023-04-02T10:42:03.086Z,80.99
2023-04-02T10:44:57.525Z,79.22
2023-04-02T10:48:00.019Z,69.47
2023-04-02T10:50:58.576Z,63.26
2023-04-02T10:53:56.283Z,64.63
2023-04-02T10:56:50.531Z,75.26
2023-04-02T10:59:41.658Z,68.79
2023-04-02T11:02:31.228Z,62.15
2023-04-02T11:05:42.716Z,64.81
2023-04-02T11:08:45.206Z,71.54
2023-04-02T11:11:38.142Z,71.59
2023-04-02T11:14:26.786Z,72.23
2023-04-02T11:17:14.510Z,76.25
2023-04-02T11:20:38.420Z,73.17
2023-04-02T11:23:27.275Z,74.71
2023-04-02T11:26:31.151Z,76.52
2023-04-02T11:29:28.803Z,78.65
2023-04-02T11:32:16.410Z,77.43
2023-04-02T11:35:07.424Z,62.99
2023-04-02T11:37:55.076Z,67.16
2023-04-02T11:40:44.860Z,64.43
2023-04-02T11:43:32.751Z,60.33
2023-04-02T11:46:30.280Z,70.19
2023-04-02T11:49:35.426Z,81.98
2023-04-02T11:52:26.553Z,94.04
2023-04-02T11:55:26.737Z,96.43
2023-04-02T11:58:37.347Z,100.00
2023-04-02T12:01:31.999Z,95.19
2023-04-02T12:04:27.722Z,99.77
2023-04-02T12:07:38.076Z,100.00
2023-04-02T12:10:27.920Z,98.10
2023-04-02T12:13:40.746Z,91.07
2023-04-02T12:16:32.451Z,83.12
2023-04-02T12:19:17.595Z,78.73
2023-04-02T12:22:02.388Z,94.38
2023-04-02T12:24:48.871Z,97.20
2023-04-02T12:27:37.593Z,93.70
2023-04-02T12:30:24.040Z,89.75
2023-04-02T12:33:33.172Z,98.54
2023-04-02T12:36:19.716Z,100.00
2023-04-02T12:39:16.503Z,100.00
2023-04-02T12:42:01.154Z,84.85
2023-04-02T12:44:49.033Z,65.55
2023-04-02T12:47:34.039Z,62.22
2023-04-02T12:50:20.512Z,63.77
2023-04-02T12:53:23.377Z,61.13
2023-04-02T12:56:18.876Z,59.70
2023-04-02T12:59:03.737Z,67.93
2023-04-02T13:01:58.327Z,78.89
2023-04-02T13:04:50.958Z,90.19
2023-04-02T13:07:35.623Z,93.01
2023-04-02T13:10:26.906Z,95.02
2023-04-02T13:13:17.515Z,100.00
2023-04-02T13:16:14.868Z,100.00
2023-04-02T13:19:11.053Z,100.00
2023-04-02T13:21:59.263Z,100.00
2023-04-02T13:24:43.842Z,100.00
2023-04-02T13:27:28.728Z,100.00
2023-04-02T13:30:21.667Z,100.00
2023-04-02T13:33:07.163Z,100.00
2023-04-02T13:35:52.487Z,100.00
2023-04-02T13:38:37.302Z,100.00
2023-04-02T13:41:36.175Z,100.00
2023-04-02T13:44:26.776Z,100.00
2023-04-02T13:47:14.205Z,100.00
2023-04-02T13:49:58.948Z,100.00
2023-04-02T13:52:44.423Z,100.00
2023-04-02T13:55:34.896Z,100.00
2023-04-02T13:58:19.844Z,100.00
2023-04-02T14:01:05.373Z,100.00
2023-04-02T14:03:51.243Z,100.00
2023-04-02T14:06:58.053Z,100.00
2023-04-02T14:10:03.910Z,100.00
2023-04-02T14:13:10.541Z,100.00
2023-04-02T14:16:23.056Z,100.00
2023-04-02T14:19:35.246Z,100.00
2023-04-02T14:22:23.110Z,100.00
2023-04-02T14:25:35.507Z,100.00
2023-04-02T14:28:44.759Z,100.00
2023-04-02T14:31:50.384Z,100.00
2023-04-02T14:34:35.124Z,100.00
2023-04-02T14:37:29.779Z,100.00
2023-04-02T14:40:38.235Z,100.00
2023-04-02T14:43:29.531Z,100.00
2023-04-02T14:46:14.581Z,100.00
2023-04-02T14:49:08.489Z,100.00
2023-04-02T14:51:56.039Z,100.00
2023-04-02T14:55:03.751Z,100.00
2023-04-02T14:57:52.920Z,100.00
2023-04-02T15:00:43.268Z,100.00
2023-04-02T15:03:36.879Z,100.00
2023-04-02T15:06:31.267Z,100.00
2023-04-02T15:09:23.402Z,100.00
2023-04-02T15:12:23.123Z,100.00
2023-04-02T15:15:26.829Z,100.00
2023-04-02T15:18:18.553Z,100.00
2023-04-02T15:21:18.480Z,100.00
2023-04-02T15:24:18.334Z,100.00
2023-04-02T15:27:25.193Z,100.00
2023-04-02T15:30:22.868Z,100.00
2023-04-02T15:33:20.072Z,100.00
2023-04-02T15:36:21.146Z,100.00
2023-04-02T15:39:47.529Z,100.00
2023-04-02T15:42:41.589Z,100.00
2023-04-02T15:45:58.624Z,100.00
2023-04-02T15:48:52.569Z,100.00
2023-04-02T15:52:07.165Z,100.00
2023-04-02T15:55:30.764Z,100.00
2023-04-02T15:58:24.200Z,100.00
2023-04-02T16:01:34.237Z,100.00
2023-04-02T16:04:27.771Z,100.00
2023-04-02T16:07:29.761Z,100.00
2023-04-02T16:10:41.956Z,100.00
2023-04-02T16:13:36.276Z,100.00
2023-04-02T16:16:33.999Z,100.00
2023-04-02T16:19:22.870Z,100.00
2023-04-02T16:22:27.784Z,100.00
2023-04-02T16:25:22.376Z,100.00
2023-04-02T16:28:30.491Z,100.00
2023-04-02T16:31:45.580Z,100.00
2023-04-02T16:34:49.054Z,100.00
2023-04-02T16:37:48.155Z,100.00
2023-04-02T16:40:41.880Z,100.00
2023-04-02T16:43:33.310Z,100.00
2023-04-02T16:46:39.867Z,100.00
2023-04-02T16:49:35.868Z,100.00
2023-04-02T16:52:49.286Z,100.00
2023-04-02T16:55:40.207Z,100.00
2023-04-02T16:58:43.105Z,100.00
2023-04-02T17:01:51.396Z,100.00
2023-04-02T17:04:45.658Z,100.00
2023-04-02T17:07:33.942Z,100.00
2023-04-02T17:10:22.823Z,100.00
2023-04-02T17:13:43.237Z,100.00
2023-04-02T17:16:36.308Z,100.00
2023-04-02T17:19:25.299Z,100.00
2023-04-02T17:22:16.628Z,100.00
2023-04-02T17:25:03.835Z,100.00
2023-04-02T17:27:52.628Z,100.00
2023-04-02T17:30:48.842Z,100.00
2023-04-02T17:33:33.372Z,100.00
2023-04-02T17:36:59.551Z,100.00
2023-04-02T17:40:22.508Z,100.00
2023-04-02T17:43:31.803Z,100.00
2023-04-02T17:46:40.725Z,100.00
2023-04-02T17:50:23.465Z,100.00
2023-04-02T17:53:27.721Z,100.00
2023-04-02T17:56:37.134Z,100.00
2023-04-02T17:59:28.699Z,100.00
2023-04-02T18:02:38.239Z,100.00
2023-04-02T18:05:31.383Z,100.00
2023-04-02T18:08:48.941Z,100.00
2023-04-02T18:11:53.163Z,100.00
2023-04-02T18:14:47.165Z,100.00
2023-04-02T18:17:47.152Z,100.00
2023-04-02T18:20:39.165Z,100.00
2023-04-02T18:23:52.992Z,100.00
2023-04-02T18:26:49.727Z,100.00
2023-04-02T18:30:02.046Z,100.00
2023-04-02T18:33:02.510Z,100.00
2023-04-02T18:35:59.071Z,100.00
2023-04-02T18:38:53.446Z,100.00
2023-04-02T18:41:44.445Z,100.00
2023-04-02T18:44:49.668Z,100.00
2023-04-02T18:47:57.569Z,100.00
2023-04-02T18:50:46.172Z,100.00
2023-04-02T18:53:32.066Z,100.00
2023-04-02T18:56:19.655Z,100.00
2023-04-02T18:59:52.496Z,100.00
2023-04-02T19:02:56.278Z,100.00
2023-04-02T19:05:48.933Z,100.00
2023-04-02T19:08:39.357Z,100.00
2023-04-02T19:11:28.806Z,100.00
2023-04-02T19:14:17.169Z,100.00
2023-04-02T19:17:24.372Z,100.00
2023-04-02T19:20:29.868Z,100.00
2023-04-02T19:23:27.046Z,100.00
2023-04-02T19:26:22.102Z,100.00
2023-04-02T19:29:16.060Z,100.00
2023-04-02T19:32:18.873Z,100.00
2023-04-02T19:35:22.277Z,100.00
2023-04-02T19:38:28.122Z,100.00
2023-04-02T19:41:33.164Z,100.00
2023-04-02T19:44:18.283Z,100.00
2023-04-02T19:47:03.666Z,100.00
2023-04-02T19:49:48.838Z,100.00
2023-04-02T19:52:33.693Z,100.00
2023-04-02T19:55:18.678Z,100.00
2023-04-02T19:58:13.170Z,100.00
2023-04-02T20:01:04.603Z,100.00
2023-04-02T20:03:49.918Z,100.00
2023-04-02T20:06:35.244Z,100.00
2023-04-02T20:09:21.171Z,100.00
2023-04-02T20:12:05.987Z,100.00
2023-04-02T20:14:50.829Z,100.00
2023-04-02T20:17:36.071Z,100.00
2023-04-02T20:20:20.572Z,100.00
2023-04-02T20:23:05.783Z,100.00
2023-04-02T20:25:54.422Z,100.00
2023-04-02T20:28:39.798Z,100.00
2023-04-02T20:31:25.007Z,100.00
2023-04-02T20:34:10.142Z,100.00
2023-04-02T20:36:55.177Z,100.00
2023-04-02T20:39:40.303Z,100.00
2023-04-02T20:42:25.892Z,100.00
2023-04-02T20:45:10.942Z,100.00
2023-04-02T20:47:56.104Z,100.00
2023-04-02T20:50:42.424Z,100.00
2023-04-02T20:53:33.041Z,100.00
2023-04-02T20:56:18.840Z,100.00
2023-04-02T20:59:03.766Z,100.00
2023-04-02T21:01:48.158Z,100.00
2023-04-02T21:04:32.563Z,100.00
2023-04-02T21:07:17.069Z,100.00
2023-04-02T21:10:02.046Z,100.00
2023-04-02T21:12:46.995Z,100.00
2023-04-02T21:15:33.045Z,100.00
2023-04-02T21:18:17.690Z,100.00
2023-04-02T21:21:05.240Z,100.00
2023-04-02T21:23:58.773Z,100.00
2023-04-02T21:26:45.932Z,100.00
2023-04-02T21:29:30.960Z,100.00
2023-04-02T21:32:21.403Z,100.00
2023-04-02T21:35:08.366Z,100.00
2023-04-02T21:37:53.372Z,100.00
2023-04-02T21:40:38.452Z,100.00
2023-04-02T21:43:23.162Z,100.00
2023-04-02T21:46:07.736Z,100.00
2023-04-02T21:48:53.944Z,100.00
2023-04-02T21:51:40.214Z,100.00
2023-04-02T21:54:24.917Z,100.00
2023-04-02T21:57:10.250Z,100.00
2023-04-02T21:59:56.266Z,100.00
2023-04-02T22:02:41.026Z,100.00
2023-04-02T22:05:28.294Z,100.00
2023-04-02T22:08:13.583Z,100.00
2023-04-02T22:11:04.805Z,100.00
2023-04-02T22:13:50.543Z,100.00
2023-04-02T22:16:36.008Z,100.00
2023-04-02T22:19:21.501Z,100.00
2023-04-02T22:22:06.131Z,100.00
2023-04-02T22:24:50.485Z,100.00
2023-04-02T22:27:35.515Z,100.00
2023-04-02T22:30:20.419Z,100.00
2023-04-02T22:33:05.485Z,100.00
2023-04-02T22:35:51.486Z,100.00
2023-04-02T22:38:36.342Z,100.00
2023-04-02T22:41:26.782Z,100.00
2023-04-02T22:44:15.258Z,100.00
2023-04-02T22:47:00.194Z,100.00
2023-04-02T22:49:45.022Z,100.00
2023-04-02T22:52:29.969Z,100.00
2023-04-02T22:55:15.015Z,100.00
2023-04-02T22:58:00.200Z,100.00
2023-04-02T23:00:45.791Z,100.00
2023-04-02T23:03:30.475Z,100.00
2023-04-02T23:06:17.464Z,100.00
2023-04-02T23:09:02.291Z,100.00
2023-04-02T23:11:47.139Z,100.00
2023-04-02T23:14:32.303Z,100.00
2023-04-02T23:17:17.266Z,100.00
2023-04-02T23:20:01.732Z,100.00
2023-04-02T23:22:46.162Z,100.00
2023-04-02T23:25:30.861Z,100.00
2023-04-02T23:28:16.088Z,100.00
2023-04-02T23:31:02.716Z,100.00
2023-04-02T23:33:48.167Z,100.00
2023-04-02T23:36:34.263Z,100.00
2023-04-02T23:39:19.788Z,100.00
2023-04-02T23:42:05.106Z,100.00
2023-04-02T23:44:49.884Z,100.00
2023-04-02T23:47:34.561Z,100.00
2023-04-02T23:50:19.299Z,100.00
2023-04-02T23:53:04.237Z,100.00
2023-04-02T23:55:49.178Z,100.00
2023-04-02T23:58:35.229Z,100.00
